Time;durP1;ratioP1;P1;durP2;ratioP2;P2;SDS_P1;SDS_P2;PMS_P1;PMS_P2;Temp;Humidity;BMP_temperature;BMP_pressure;BME280_temperature;BME280_humidity;BME280_pressure;Samples;Min_cycle;Max_cycle;Signal;HPM_P1;HPM_P2
2021/05/04 00:02:55;;;;;;;13.00;8.13;;;;;;;2.92;66.99;99018.22;2206023;81;21119;-80
2021/05/04 00:05:56;;;;;;;12.20;7.07;;;;;;;2.91;66.99;99009.13;2213468;80;21142;-79
2021/05/04 00:08:57;;;;;;;10.17;6.50;;;;;;;2.87;66.79;99009.39;2205778;81;21119;-81
2021/05/04 00:11:58;;;;;;;14.60;6.93;;;;;;;2.83;66.63;99011.36;2214471;79;21106;-81
2021/05/04 00:14:59;;;;;;;18.77;5.90;;;;;;;2.72;66.58;99006.13;2205513;81;21095;-80
2021/05/04 00:18:00;;;;;;;7.80;5.67;;;;;;;2.61;66.44;99002.19;2213386;80;21062;-80
2021/05/04 00:21:02;;;;;;;9.10;5.63;;;;;;;2.43;66.58;98998.33;2204452;81;21166;-81
2021/05/04 00:24:03;;;;;;;11.17;6.17;;;;;;;2.27;66.62;99001.89;2213195;80;21142;-80
2021/05/04 00:27:04;;;;;;;8.57;5.97;;;;;;;2.07;66.94;99000.08;2204511;81;21416;-80
2021/05/04 00:30:05;;;;;;;9.63;6.17;;;;;;;1.94;67.06;98999.02;2213204;80;21228;-81
2021/05/04 00:33:06;;;;;;;10.00;5.77;;;;;;;1.79;67.37;98995.30;2205427;81;21086;-80
2021/05/04 00:36:07;;;;;;;8.97;5.83;;;;;;;1.72;67.46;98994.48;2213548;80;21379;-80
2021/05/04 00:39:08;;;;;;;11.03;5.80;;;;;;;1.64;67.67;98997.09;2205250;81;21106;-81
2021/05/04 00:42:10;;;;;;;8.17;5.43;;;;;;;1.56;67.84;98996.71;2213445;80;21176;-80
2021/05/04 00:45:11;;;;;;;12.40;6.13;;;;;;;1.50;67.94;98998.98;2205473;81;21135;-79
2021/05/04 00:48:12;;;;;;;8.17;5.83;;;;;;;1.46;68.26;98986.38;2213319;80;21227;-79
2021/05/04 00:51:13;;;;;;;9.83;6.07;;;;;;;1.45;68.44;98995.30;2204993;81;21115;-81
2021/05/04 00:54:14;;;;;;;12.50;7.10;;;;;;;1.40;68.50;98992.50;2213157;80;21275;-80
2021/05/04 00:57:15;;;;;;;13.40;6.57;;;;;;;1.36;68.78;98996.13;2205497;81;21413;-79
2021/05/04 01:00:16;;;;;;;8.73;6.07;;;;;;;1.32;68.94;98992.52;2213189;80;21133;-80
2021/05/04 01:03:17;;;;;;;9.13;5.90;;;;;;;1.22;69.19;98983.86;2205069;81;21118;-80
2021/05/04 01:06:18;;;;;;;7.17;5.10;;;;;;;1.13;69.25;98983.00;2213178;79;21133;-80
2021/05/04 01:09:19;;;;;;;10.53;5.03;;;;;;;1.04;69.33;98978.67;2205295;81;21126;-79
2021/05/04 01:12:21;;;;;;;8.13;5.93;;;;;;;0.98;69.44;98976.19;2213921;79;21132;-79
2021/05/04 01:15:22;;;;;;;9.40;5.50;;;;;;;0.95;69.46;98978.20;2205057;81;21131;-80
2021/05/04 01:18:23;;;;;;;9.40;5.60;;;;;;;0.87;69.58;98973.06;2213600;80;21133;-79
2021/05/04 01:21:24;;;;;;;10.70;6.77;;;;;;;0.74;69.71;98974.09;2195205;81;21262;-78
2021/05/04 01:24:25;;;;;;;11.23;7.10;;;;;;;0.72;70.00;98973.52;2168265;82;21232;-81
2021/05/04 01:27:26;;;;;;;18.20;11.27;;;;;;;0.73;70.37;98970.16;2211878;80;21118;-80
2021/05/04 01:30:27;;;;;;;19.73;11.27;;;;;;;0.79;70.92;98967.50;2190637;81;21412;-80
2021/05/04 01:33:30;;;;;;;19.47;10.97;;;;;;;0.97;70.84;98975.31;2173612;81;21294;-79
2021/05/04 01:36:31;;;;;;;16.33;8.30;;;;;;;1.08;70.69;98964.28;2191039;81;21117;-79
2021/05/04 01:39:32;;;;;;;15.10;9.70;;;;;;;1.13;70.33;98960.26;2212483;80;21113;-80
2021/05/04 01:42:33;;;;;;;22.97;12.77;;;;;;;1.20;70.45;98955.91;2190927;81;21119;-80
2021/05/04 01:45:34;;;;;;;21.50;12.13;;;;;;;1.33;70.82;98954.83;2174026;81;21105;-79
2021/05/04 01:48:35;;;;;;;20.00;9.67;;;;;;;1.46;70.63;98945.62;2191733;81;21130;-79
2021/05/04 01:51:37;;;;;;;13.37;7.97;;;;;;;1.48;70.15;98939.74;2212314;80;21101;-81
2021/05/04 01:54:38;;;;;;;12.03;7.73;;;;;;;1.44;69.75;98939.11;2191414;81;21154;-80
2021/05/04 01:57:39;;;;;;;10.07;6.13;;;;;;;1.35;69.51;98933.92;2211402;80;21136;-79
2021/05/04 02:00:40;;;;;;;14.67;8.10;;;;;;;1.16;69.38;98933.02;2190612;81;21405;-81
2021/05/04 02:03:41;;;;;;;16.57;7.67;;;;;;;0.99;69.67;98933.86;2211800;80;21109;-78
2021/05/04 02:06:43;;;;;;;18.47;9.17;;;;;;;0.90;69.89;98935.55;2190220;81;21237;-79
2021/05/04 02:09:44;;;;;;;14.97;9.00;;;;;;;0.89;70.28;98931.63;2211852;80;21117;-80
2021/05/04 02:12:45;;;;;;;12.70;7.50;;;;;;;0.89;70.22;98923.91;2191971;81;21075;-81
2021/05/04 02:15:46;;;;;;;15.67;8.57;;;;;;;0.77;70.01;98918.12;2212212;80;21423;-80
2021/05/04 02:18:47;;;;;;;16.83;8.97;;;;;;;0.74;70.50;98924.38;2191600;81;21492;-80
2021/05/04 02:21:48;;;;;;;14.77;9.30;;;;;;;0.76;70.41;98924.06;2212960;80;21110;-80
2021/05/04 02:24:49;;;;;;;20.20;10.80;;;;;;;0.76;70.49;98926.23;2202701;81;21405;-81
2021/05/04 02:27:50;;;;;;;21.13;10.43;;;;;;;0.76;70.60;98925.34;2175262;81;21138;-81
2021/05/04 02:30:51;;;;;;;19.67;9.33;;;;;;;0.72;70.52;98922.14;2202042;81;21238;-81
2021/05/04 02:33:52;;;;;;;14.47;9.63;;;;;;;0.66;70.72;98917.97;2212557;80;21435;-80
2021/05/04 02:36:54;;;;;;;17.80;9.17;;;;;;;0.57;70.87;98915.41;2201166;81;21130;-80
2021/05/04 02:39:55;;;;;;;34.03;12.53;;;;;;;0.55;70.84;98917.41;2212324;81;21122;-80
2021/05/04 02:42:56;;;;;;;22.93;11.40;;;;;;;0.55;71.39;98913.56;2202303;80;21114;-80
2021/05/04 02:45:57;;;;;;;30.13;14.23;;;;;;;0.62;71.35;98917.81;2175007;82;21085;-81
2021/05/04 02:48:58;;;;;;;23.83;12.03;;;;;;;0.69;71.45;98915.56;2202075;80;21119;-81
2021/05/04 02:51:59;;;;;;;31.80;15.13;;;;;;;0.69;71.39;98911.30;2174835;81;21130;-80
2021/05/04 02:55:00;;;;;;;39.33;19.30;;;;;;;0.71;71.23;98908.81;2201984;81;21445;-79
2021/05/04 02:58:01;;;;;;;32.37;17.47;;;;;;;0.73;71.77;98910.66;2175145;81;21124;-80
2021/05/04 03:01:02;;;;;;;42.67;19.93;;;;;;;0.84;72.21;98908.63;2201908;81;21221;-80
2021/05/04 03:04:03;;;;;;;33.47;16.30;;;;;;;1.00;71.76;98905.18;2174701;81;21395;-80
2021/05/04 03:07:04;;;;;;;37.23;17.60;;;;;;;1.12;71.31;98902.81;2202188;81;21524;-79
2021/05/04 03:10:06;;;;;;;33.97;17.70;;;;;;;1.20;71.26;98900.22;2174830;81;21117;-81
2021/05/04 03:13:07;;;;;;;44.13;21.00;;;;;;;1.28;71.09;98894.16;2201851;81;21075;-81
2021/05/04 03:16:11;;;;;;;42.97;20.37;;;;;;;1.33;71.08;98893.10;2175000;81;21550;-79
2021/05/04 03:19:12;;;;;;;47.03;22.20;;;;;;;1.46;71.17;98891.59;2202384;81;21206;-80
2021/05/04 03:22:13;;;;;;;43.93;21.77;;;;;;;1.64;71.16;98891.59;2179312;81;21149;-80
2021/05/04 03:25:14;;;;;;;38.33;20.07;;;;;;;1.75;70.92;98882.31;2211757;80;21233;-80
2021/05/04 03:28:15;;;;;;;35.93;18.13;;;;;;;1.89;70.34;98879.98;2180946;81;21145;-79
2021/05/04 03:31:16;;;;;;;35.67;19.10;;;;;;;1.86;70.16;98878.55;2205326;81;21234;-81
2021/05/04 03:34:17;;;;;;;40.13;21.43;;;;;;;1.91;70.05;98876.19;2181650;81;21125;-78
2021/05/04 03:37:18;;;;;;;43.97;21.63;;;;;;;2.06;70.28;98867.88;2204264;81;21119;-79
2021/05/04 03:40:19;;;;;;;46.00;20.60;;;;;;;2.26;69.80;98868.77;2181025;82;21244;-79
2021/05/04 03:43:20;;;;;;;47.60;20.67;;;;;;;2.34;69.56;98872.56;2204936;81;21107;-79
2021/05/04 03:46:21;;;;;;;41.37;19.93;;;;;;;2.56;69.60;98876.97;2181306;81;21418;-79
2021/05/04 03:49:22;;;;;;;42.30;20.43;;;;;;;2.81;69.24;98866.93;2205323;81;21241;-79
2021/05/04 03:52:23;;;;;;;64.63;21.43;;;;;;;3.03;68.66;98866.13;2181177;82;21238;-78
2021/05/04 03:55:24;;;;;;;45.27;20.93;;;;;;;3.18;68.36;98865.88;2204739;81;21439;-78
2021/05/04 03:58:25;;;;;;;45.40;20.70;;;;;;;3.31;67.86;98856.95;2180780;82;21121;-79
2021/05/04 04:01:26;;;;;;;43.17;21.17;;;;;;;3.40;67.65;98858.20;2205279;81;21142;-80
2021/05/04 04:04:27;;;;;;;44.10;19.97;;;;;;;3.46;67.25;98853.27;2180707;82;21105;-79
2021/05/04 04:07:29;;;;;;;38.20;18.43;;;;;;;3.58;67.20;98855.91;2204443;81;21134;-78
2021/05/04 04:10:30;;;;;;;34.47;19.00;;;;;;;3.66;66.92;98854.09;2181106;82;21109;-78
2021/05/04 04:13:33;;;;;;;51.73;20.93;;;;;;;3.86;66.82;98847.52;2204613;81;21135;-79
2021/05/04 04:16:34;;;;;;;46.10;19.80;;;;;;;4.13;66.64;98853.31;2180836;81;21240;-79
2021/05/04 04:19:35;;;;;;;44.17;21.63;;;;;;;4.46;66.35;98857.58;2205055;81;21124;-78
2021/05/04 04:22:36;;;;;;;39.43;20.87;;;;;;;4.71;64.92;98854.56;2181618;81;21156;-78
2021/05/04 04:25:37;;;;;;;43.83;20.53;;;;;;;5.01;64.48;98862.49;2204692;81;21233;-79
2021/05/04 04:28:38;;;;;;;35.37;19.00;;;;;;;5.23;63.87;98846.01;2180729;82;21137;-79
2021/05/04 04:31:41;;;;;;;41.07;21.30;;;;;;;5.39;63.46;98853.44;2204779;81;21225;-78
2021/05/04 04:34:42;;;;;;;39.33;21.93;;;;;;;5.60;63.28;98849.36;2180421;82;21255;-78
2021/05/04 04:37:43;;;;;;;31.13;18.70;;;;;;;5.86;63.12;98844.98;2205013;81;21237;-77
2021/05/04 04:40:47;;;;;;;42.37;20.97;;;;;;;6.08;61.86;98840.97;2180640;82;21446;-78
2021/05/04 04:43:48;;;;;;;40.80;23.10;;;;;;;6.28;61.63;98838.95;2204720;81;21144;-78
2021/05/04 04:46:51;;;;;;;36.67;21.30;;;;;;;6.50;60.91;98841.73;2180332;82;21211;-78
2021/05/04 04:49:52;;;;;;;36.07;18.00;;;;;;;6.68;60.33;98834.45;2204834;81;21114;-78
2021/05/04 04:52:54;;;;;;;31.20;19.07;;;;;;;7.03;59.35;98832.39;2180653;82;21132;-78
2021/05/04 04:55:55;;;;;;;36.17;17.93;;;;;;;7.03;59.35;98832.39;2204459;81;21127;-79
2021/05/04 04:58:57;;;;;;;48.90;26.80;;;;;;;7.24;57.93;98832.05;2180842;81;21542;-78
2021/05/04 05:01:58;;;;;;;65.80;38.00;;;;;;;7.44;58.63;98831.66;2204798;80;21139;-79
2021/05/04 05:04:59;;;;;;;37.80;20.20;;;;;;;7.65;58.29;98828.26;2180699;82;21108;-76
2021/05/04 05:08:00;;;;;;;54.47;26.00;;;;;;;7.90;57.75;98827.13;2203760;81;21150;-75
2021/05/04 05:11:01;;;;;;;37.43;20.23;;;;;;;8.11;56.95;98822.39;2179986;81;21240;-75
2021/05/04 05:14:04;;;;;;;69.53;40.70;;;;;;;8.34;55.68;98827.22;2204069;81;21158;-74
2021/05/04 05:17:05;;;;;;;49.23;24.83;;;;;;;8.56;56.16;98825.49;2180060;82;21385;-74
2021/05/04 05:20:06;;;;;;;30.97;16.63;;;;;;;8.79;55.36;98824.66;2203545;81;21237;-75
2021/05/04 05:23:07;;;;;;;35.90;18.43;;;;;;;9.01;52.88;98811.61;2182171;82;21247;-75
2021/05/04 05:26:08;;;;;;;25.13;14.67;;;;;;;9.20;53.68;98811.06;2210320;81;21117;-74
2021/05/04 05:29:09;;;;;;;21.70;12.53;;;;;;;9.41;51.94;98801.42;2183857;81;21247;-75
2021/05/04 05:32:10;;;;;;;47.70;16.43;;;;;;;9.44;51.56;98806.25;2211504;81;21087;-75
2021/05/04 05:35:11;;;;;;;33.13;14.93;;;;;;;9.55;52.21;98804.72;2183001;81;21287;-74
2021/05/04 05:38:13;;;;;;;28.47;14.70;;;;;;;9.74;51.40;98804.98;2210514;81;21110;-75
2021/05/04 05:41:14;;;;;;;44.23;15.37;;;;;;;9.83;50.95;98800.78;2183091;81;21228;-75
2021/05/04 05:44:15;;;;;;;43.83;15.00;;;;;;;9.99;51.06;98801.87;2210780;80;21409;-74
2021/05/04 05:47:16;;;;;;;31.93;14.13;;;;;;;10.16;50.58;98802.09;2183374;81;21105;-75
2021/05/04 05:50:17;;;;;;;33.53;13.33;;;;;;;10.30;50.66;98799.69;2210902;81;21122;-75
2021/05/04 05:53:18;;;;;;;33.83;13.03;;;;;;;10.50;49.78;98791.69;2183743;81;21502;-75
2021/05/04 05:56:20;;;;;;;33.77;12.00;;;;;;;10.66;50.00;98789.69;2210532;81;21127;-75
2021/05/04 05:59:21;;;;;;;38.20;12.07;;;;;;;10.85;48.75;98777.27;2183019;82;21227;-74
2021/05/04 06:02:22;;;;;;;19.20;10.00;;;;;;;10.89;49.04;98775.56;2210874;81;21408;-75
2021/05/04 06:05:26;;;;;;;23.83;10.68;;;;;;;11.15;48.72;98767.52;2183697;81;21116;-75
2021/05/04 06:08:27;;;;;;;30.70;10.18;;;;;;;11.40;48.18;98765.13;2210973;81;21111;-75
2021/05/04 06:11:28;;;;;;;17.82;9.53;;;;;;;11.59;47.93;98753.06;2183910;81;21105;-75
2021/05/04 06:14:29;;;;;;;29.52;17.40;;;;;;;11.78;47.55;98747.98;2183890;82;21157;-75
2021/05/04 06:17:30;;;;;;;12.10;8.53;;;;;;;11.94;47.01;98744.14;2210993;81;21112;-75
2021/05/04 06:20:31;;;;;;;16.42;7.65;;;;;;;12.08;46.68;98747.25;2222292;80;21420;-76
2021/05/04 06:23:32;;;;;;;11.08;7.40;;;;;;;12.26;45.96;98744.30;2201929;81;21135;-75
2021/05/04 06:26:33;;;;;;;33.18;7.78;;;;;;;12.41;45.80;98741.30;2204865;80;21196;-75
2021/05/04 06:29:34;;;;;;;14.28;7.03;;;;;;;12.56;44.77;98736.97;2200519;80;21107;-76
2021/05/04 06:32:36;;;;;;;8.85;5.70;;;;;;;12.70;44.45;98728.70;2204919;80;21127;-76
2021/05/04 06:35:40;;;;;;;183.85;17.82;;;;;;;12.85;43.96;98721.30;2200467;81;21166;-77
2021/05/04 06:38:42;;;;;;;21.75;7.12;;;;;;;12.97;44.38;98713.44;2167105;81;21149;-76
2021/05/04 06:41:43;;;;;;;10.95;5.17;;;;;;;12.99;44.08;98713.87;2166835;82;21103;-76
2021/05/04 06:44:44;;;;;;;64.70;9.53;;;;;;;13.08;42.11;98704.73;2166824;82;21113;-76
2021/05/04 06:47:45;;;;;;;7.40;4.22;;;;;;;13.15;43.43;98709.53;2166847;82;21082;-75
2021/05/04 06:50:46;;;;;;;8.98;4.05;;;;;;;13.33;42.46;98695.14;2166844;82;21113;-76
2021/05/04 06:53:47;;;;;;;9.50;4.60;;;;;;;13.54;41.29;98686.35;2167004;82;21212;-76
2021/05/04 06:56:48;;;;;;;8.03;5.10;;;;;;;13.74;41.36;98682.80;2166780;81;21173;-76
2021/05/04 06:59:51;;;;;;;27.93;5.60;;;;;;;13.94;40.91;98679.25;2166835;82;21078;-75
2021/05/04 07:02:52;;;;;;;5.58;3.83;;;;;;;14.18;40.33;98669.52;2166858;82;21121;-75
2021/05/04 07:05:53;;;;;;;6.97;3.50;;;;;;;14.46;39.37;98665.88;2166833;82;21113;-75
2021/05/04 07:08:54;;;;;;;17.10;4.80;;;;;;;14.76;39.12;98661.31;2166861;82;21404;-76
2021/05/04 07:11:55;;;;;;;13.58;4.53;;;;;;;15.01;37.35;98660.23;2166705;82;21101;-76
2021/05/04 07:14:56;;;;;;;5.62;3.60;;;;;;;15.23;37.88;98651.69;2166811;82;21246;-76
2021/05/04 07:17:57;;;;;;;5.05;3.90;;;;;;;15.52;38.05;98646.13;2167182;81;21380;-76
2021/05/04 07:21:02;;;;;;;15.72;4.42;;;;;;;15.71;35.15;98631.94;2167082;82;21396;-76
2021/05/04 07:24:02;;;;;;;7.60;3.67;;;;;;;15.77;36.69;98637.57;2182613;81;21129;-76
2021/05/04 07:27:03;;;;;;;6.42;3.50;;;;;;;15.80;35.34;98623.05;2183614;81;21525;-76
2021/05/04 07:30:04;;;;;;;12.20;4.12;;;;;;;15.93;35.60;98628.59;2183676;81;21231;-76
2021/05/04 07:33:05;;;;;;;8.50;3.30;;;;;;;15.87;35.09;98621.64;2183776;81;21077;-76
2021/05/04 07:36:06;;;;;;;5.55;2.98;;;;;;;15.89;34.51;98618.99;2183802;81;21264;-76
2021/05/04 07:39:07;;;;;;;9.78;4.28;;;;;;;15.87;34.45;98610.24;2183676;81;21260;-76
2021/05/04 07:42:08;;;;;;;4.50;3.40;;;;;;;15.99;34.67;98611.84;2183657;81;21231;-77
2021/05/04 07:45:09;;;;;;;5.17;3.20;;;;;;;15.90;34.45;98598.36;2183654;81;21113;-76
2021/05/04 07:48:13;;;;;;;10.30;4.95;;;;;;;15.66;34.39;98598.67;2183654;81;21530;-77
2021/05/04 07:51:14;;;;;;;8.90;4.33;;;;;;;16.09;34.74;98585.36;2183721;81;21231;-76
2021/05/04 07:54:17;;;;;;;15.05;4.40;;;;;;;16.09;34.74;98585.36;2183654;81;21537;-77
2021/05/04 07:57:20;;;;;;;11.55;3.60;;;;;;;16.36;32.51;98588.48;2183518;80;21534;-77
2021/05/04 08:00:21;;;;;;;6.67;3.70;;;;;;;16.57;32.93;98577.64;2183946;81;21235;-76
2021/05/04 08:03:22;;;;;;;3.95;2.80;;;;;;;16.79;31.72;98575.54;2183889;81;21138;-77
2021/05/04 08:06:23;;;;;;;5.03;3.30;;;;;;;16.63;31.97;98574.03;2183620;81;21134;-76
2021/05/04 08:09:27;;;;;;;3.77;3.45;;;;;;;16.91;33.63;98571.38;2183570;81;21422;-77
2021/05/04 08:12:28;;;;;;;19.55;3.90;;;;;;;16.73;33.69;98566.42;2183632;82;21239;-76
2021/05/04 08:15:29;;;;;;;8.95;3.60;;;;;;;16.80;32.53;98565.41;2183503;81;21558;-77
2021/05/04 08:18:32;;;;;;;5.37;3.58;;;;;;;16.50;33.10;98554.92;2183902;81;21109;-77
2021/05/04 08:21:34;;;;;;;3.90;3.40;;;;;;;16.22;33.07;98562.36;2184003;80;21113;-76
2021/05/04 08:24:35;;;;;;;10.75;3.80;;;;;;;16.07;33.76;98552.05;2173256;82;21105;-76
2021/05/04 08:27:36;;;;;;;15.40;3.55;;;;;;;15.82;34.58;98558.98;2173011;82;21251;-76
2021/05/04 08:30:38;;;;;;;23.50;5.65;;;;;;;15.53;34.52;98558.43;2173036;81;21103;-76
2021/05/04 08:33:39;;;;;;;16.50;4.28;;;;;;;15.04;35.66;98562.94;2173048;81;21543;-75
2021/05/04 08:36:40;;;;;;;15.28;7.25;;;;;;;14.75;36.13;98555.80;2172984;82;21570;-77
2021/05/04 08:39:42;;;;;;;7.62;4.17;;;;;;;14.72;36.16;98557.09;2173102;82;21120;-78
2021/05/04 08:42:43;;;;;;;5.78;4.30;;;;;;;14.75;35.69;98553.16;2172367;81;21220;-77
2021/05/04 08:45:44;;;;;;;5.97;4.53;;;;;;;14.87;36.16;98549.10;2172350;81;21515;-77
2021/05/04 08:48:45;;;;;;;5.83;4.00;;;;;;;15.09;36.77;98537.92;2172565;81;21101;-78
2021/05/04 08:51:46;;;;;;;5.97;3.75;;;;;;;15.32;35.50;98535.02;2172592;82;21252;-79
2021/05/04 08:54:47;;;;;;;4.97;3.27;;;;;;;15.78;35.25;98523.52;2172916;82;21149;-79
2021/05/04 08:57:48;;;;;;;11.55;3.83;;;;;;;16.36;34.41;98512.09;2173472;81;21149;-78
2021/05/04 09:00:49;;;;;;;4.95;2.80;;;;;;;16.86;34.08;98500.72;2172794;81;21085;-79
2021/05/04 09:03:52;;;;;;;5.67;3.80;;;;;;;17.38;31.51;98486.53;2173213;81;21121;-78
2021/05/04 09:06:56;;;;;;;6.80;3.67;;;;;;;17.52;32.44;98481.83;2173686;81;21106;-81
2021/05/04 09:09:56;;;;;;;9.83;4.30;;;;;;;17.81;32.90;98478.56;2173911;81;21106;-78
2021/05/04 09:13:01;;;;;;;27.75;4.35;;;;;;;18.21;31.70;98480.30;2173374;81;21085;-77
2021/05/04 09:16:22;;;;;;;7.90;4.00;;;;;;;17.95;32.48;98479.11;2173403;82;21141;-78
2021/05/04 09:22:42;;;;;;;9.67;3.77;;;;;;;17.34;33.34;98469.90;2166672;82;21291;-78
2021/05/04 09:25:44;;;;;;;5.40;4.20;;;;;;;16.97;33.31;98466.25;2181134;81;21383;-77
2021/05/04 09:28:45;;;;;;;10.40;4.53;;;;;;;16.80;34.27;98469.21;2183969;81;21157;-78
2021/05/04 09:31:46;;;;;;;14.35;4.72;;;;;;;16.64;34.51;98466.41;2183810;81;21105;-78
2021/05/04 09:34:47;;;;;;;10.32;4.85;;;;;;;16.39;34.43;98459.36;2183862;81;21263;-78
2021/05/04 09:37:48;;;;;;;9.68;4.30;;;;;;;16.25;34.82;98460.47;2183936;81;21418;-78
2021/05/04 09:40:49;;;;;;;6.75;4.67;;;;;;;16.14;35.46;98455.83;2184506;81;21240;-78
2021/05/04 09:43:50;;;;;;;6.67;4.50;;;;;;;16.18;35.50;98455.33;2184312;81;21227;-77
2021/05/04 09:46:51;;;;;;;8.15;4.55;;;;;;;16.43;35.40;98439.97;2183856;81;21104;-77
2021/05/04 09:49:52;;;;;;;8.53;4.55;;;;;;;16.90;35.45;98435.18;2183840;81;21105;-78
2021/05/04 09:52:53;;;;;;;5.65;4.33;;;;;;;17.23;35.25;98437.57;2183991;81;21257;-78
2021/05/04 09:55:54;;;;;;;7.42;3.85;;;;;;;17.16;34.29;98434.64;2183698;81;21546;-77
2021/05/04 09:58:56;;;;;;;12.85;5.45;;;;;;;17.14;34.51;98421.94;2183867;81;21153;-78
2021/05/04 10:01:57;;;;;;;5.62;4.25;;;;;;;17.06;34.44;98423.42;2183660;82;21219;-78
2021/05/04 10:04:58;;;;;;;9.70;4.75;;;;;;;16.85;34.50;98418.14;2183815;81;21510;-78
2021/05/04 10:07:59;;;;;;;5.50;4.97;;;;;;;16.74;34.33;98419.25;2183883;81;21113;-77
2021/05/04 10:11:00;;;;;;;16.15;5.00;;;;;;;16.81;34.93;98403.28;2183890;81;21235;-78
2021/05/04 10:14:01;;;;;;;14.28;7.60;;;;;;;17.13;34.54;98397.34;2183987;81;21240;-76
2021/05/04 10:17:03;;;;;;;13.83;5.42;;;;;;;17.47;34.58;98382.11;2183566;82;21271;-78
2021/05/04 10:20:04;;;;;;;13.45;10.35;;;;;;;17.92;33.86;98380.17;2183827;81;21113;-77
2021/05/04 10:23:05;;;;;;;8.60;5.15;;;;;;;18.32;33.67;98365.97;2208043;81;21146;-78
2021/05/04 10:26:09;;;;;;;6.03;4.30;;;;;;;18.43;33.03;98363.45;2211505;80;21070;-79
2021/05/04 10:29:12;;;;;;;11.73;4.97;;;;;;;18.51;33.55;98345.19;2200150;81;21111;-79
2021/05/04 10:32:13;;;;;;;;;;;;;;;18.77;32.07;98342.70;2213906;80;21070;-78
2021/05/04 10:35:14;;;;;;;14.13;4.15;;;;;;;18.89;32.79;98338.38;2211399;81;20441;-78
2021/05/04 10:38:15;;;;;;;4.28;3.17;;;;;;;19.04;32.78;98321.18;2200555;81;21380;-79
2021/05/04 10:41:17;;;;;;;7.40;3.65;;;;;;;19.15;32.10;98319.56;2211782;80;21106;-78
2021/05/04 10:44:18;;;;;;;121.85;12.47;;;;;;;19.16;32.06;98314.69;2201121;81;21115;-79
2021/05/04 10:47:19;;;;;;;44.20;5.97;;;;;;;19.20;31.56;98307.06;2173515;81;21141;-79
2021/05/04 10:50:24;;;;;;;17.12;4.10;;;;;;;19.24;31.39;98308.70;2173375;81;21228;-79
2021/05/04 10:53:25;;;;;;;20.65;4.53;;;;;;;19.27;31.36;98303.30;2173257;82;21078;-78
2021/05/04 10:56:26;;;;;;;13.00;4.08;;;;;;;19.33;31.25;98292.52;2173323;82;21148;-78
2021/05/04 10:59:27;;;;;;;8.68;4.15;;;;;;;19.27;31.77;98289.62;2173049;81;21251;-79
2021/05/04 11:02:30;;;;;;;10.58;3.22;;;;;;;19.24;32.10;98280.91;2173483;81;21125;-79
2021/05/04 11:05:31;;;;;;;8.48;3.20;;;;;;;19.37;30.83;98276.50;2172968;81;21224;-79
2021/05/04 11:08:34;;;;;;;7.05;3.30;;;;;;;19.45;30.33;98270.95;2173120;81;21113;-79
2021/05/04 11:11:36;;;;;;;8.18;3.37;;;;;;;19.65;30.62;98264.57;2173453;81;21419;-78
2021/05/04 11:14:39;;;;;;;5.20;3.30;;;;;;;19.88;30.15;98261.59;2173398;82;21180;-78
2021/05/04 11:17:40;;;;;;;3.10;2.80;;;;;;;20.10;29.42;98258.63;2173840;82;21231;-79
2021/05/04 11:20:41;;;;;;;2.98;2.70;;;;;;;20.24;29.61;98251.05;2173960;82;21102;-79
2021/05/04 11:23:42;;;;;;;5.80;2.60;;;;;;;20.34;29.08;98236.53;2170555;82;21444;-79
2021/05/04 11:26:44;;;;;;;5.12;2.77;;;;;;;20.10;27.83;98238.75;2167271;82;21106;-77
2021/05/04 11:29:45;;;;;;;4.95;2.87;;;;;;;19.93;29.01;98241.11;2167188;82;21145;-79
2021/05/04 11:32:46;;;;;;;3.27;2.87;;;;;;;19.76;29.71;98226.27;2166842;81;21239;-79
2021/05/04 11:35:47;;;;;;;9.95;3.22;;;;;;;19.65;29.76;98227.96;2166886;82;21431;-78
2021/05/04 11:38:48;;;;;;;8.13;3.47;;;;;;;19.62;29.81;98224.09;2166437;82;21110;-79
2021/05/04 11:41:49;;;;;;;8.58;3.65;;;;;;;19.80;29.71;98214.65;2166299;81;21129;-78
2021/05/04 11:44:51;;;;;;;3.17;2.87;;;;;;;19.90;30.01;98216.05;2166320;82;21416;-77
2021/05/04 11:47:52;;;;;;;6.45;3.00;;;;;;;19.94;29.36;98208.41;2167282;82;21383;-79
2021/05/04 11:50:53;;;;;;;12.03;3.10;;;;;;;19.77;29.24;98199.73;2167252;82;21129;-79
2021/05/04 11:53:54;;;;;;;7.72;5.37;;;;;;;19.75;29.88;98202.89;2166500;82;21240;-78
2021/05/04 11:56:55;;;;;;;4.75;3.17;;;;;;;19.69;30.26;98198.68;2166926;82;21427;-78
2021/05/04 11:59:56;;;;;;;4.90;2.98;;;;;;;19.79;29.78;98194.38;2166874;82;21162;-79
2021/05/04 12:02:57;;;;;;;3.62;2.70;;;;;;;19.77;30.65;98181.66;2166892;82;21361;-77
2021/05/04 12:05:59;;;;;;;6.90;2.85;;;;;;;19.85;30.09;98176.49;2167245;81;21078;-78
2021/05/04 12:09:00;;;;;;;3.55;2.75;;;;;;;19.95;30.25;98163.81;2167361;81;21112;-81
2021/05/04 12:12:02;;;;;;;3.10;2.80;;;;;;;19.91;30.10;98163.48;2167702;82;21420;-79
2021/05/04 12:15:03;;;;;;;5.70;2.75;;;;;;;20.00;30.17;98155.23;2167703;82;21419;-80
2021/05/04 12:18:04;;;;;;;37.55;29.32;;;;;;;20.25;30.40;98149.42;2167414;82;21090;-81
2021/05/04 12:21:07;;;;;;;32.80;5.78;;;;;;;20.52;29.24;98144.88;2201403;81;21118;-81
2021/05/04 12:24:08;;;;;;;9.55;2.70;;;;;;;20.59;28.61;98133.56;2209297;80;21122;-81
2021/05/04 12:27:09;;;;;;;6.85;2.70;;;;;;;20.62;28.38;98126.34;2201420;80;21098;-80
2021/05/04 12:30:10;;;;;;;4.25;3.05;;;;;;;20.82;28.66;98116.30;2212090;80;21109;-77
2021/05/04 12:33:13;;;;;;;3.20;2.90;;;;;;;20.86;28.38;98111.73;2201723;81;21760;-81
2021/05/04 12:36:17;;;;;;;5.20;2.37;;;;;;;20.88;28.14;98104.57;2212155;81;21272;-80
2021/05/04 12:39:17;;;;;;;3.73;2.90;;;;;;;20.88;28.48;98100.12;2201343;81;21146;-81
2021/05/04 12:42:18;;;;;;;5.37;2.85;;;;;;;20.83;28.44;98094.61;2212158;80;21620;-80
2021/05/04 12:45:19;;;;;;;5.17;2.83;;;;;;;20.97;28.96;98087.81;2201008;81;21136;-80
2021/05/04 12:48:20;;;;;;;6.30;3.02;;;;;;;21.17;29.29;98079.00;2211733;80;21094;-79
2021/05/04 12:51:22;;;;;;;8.85;2.92;;;;;;;21.27;28.24;98076.38;2200566;81;21138;-73
2021/05/04 12:54:23;;;;;;;27.30;4.35;;;;;;;21.30;28.52;98062.11;2211720;81;21153;-77
2021/05/04 12:57:26;;;;;;;8.80;2.85;;;;;;;21.41;28.12;98049.70;2200965;80;21138;-81
2021/05/04 13:00:27;;;;;;;9.63;2.87;;;;;;;21.34;27.65;98047.78;2212359;80;21143;-79
2021/05/04 13:03:28;;;;;;;14.63;3.27;;;;;;;21.30;28.43;98040.88;2201096;81;21115;-79
2021/05/04 13:06:32;;;;;;;7.08;2.85;;;;;;;21.35;29.04;98034.91;2211739;80;21387;-79
2021/05/04 13:12:56;;;;;;;5.22;2.80;;;;;;;21.59;28.14;98020.53;2211662;80;21240;-79
2021/05/04 13:32:36;;;;;;;10.65;2.87;;;;;;;21.54;26.07;97996.44;2211780;81;21255;-80
2021/05/04 13:35:38;;;;;;;7.77;3.10;;;;;;;21.49;24.80;97987.36;2201567;80;21111;-80
2021/05/04 13:38:46;;;;;;;5.03;2.70;;;;;;;21.41;24.47;97982.00;2212254;80;21556;-79
2021/05/04 13:48:30;;;;;;;4.58;2.83;;;;;;;21.35;24.21;97971.20;2167262;81;21551;-79
2021/05/04 13:51:31;;;;;;;3.70;2.25;;;;;;;21.30;25.02;97963.91;2211815;81;21423;-79
2021/05/04 13:54:32;;;;;;;3.35;2.85;;;;;;;21.25;24.76;97950.84;2201229;80;21273;-79
2021/05/04 13:57:34;;;;;;;15.43;2.90;;;;;;;21.17;24.76;97950.77;2212317;80;21098;-79
2021/05/04 14:00:42;;;;;;;23.35;3.77;;;;;;;21.24;25.07;97948.26;2201484;80;21285;-81
2021/05/04 14:03:49;;;;;;;7.42;2.87;;;;;;;21.26;24.90;97951.23;2212554;80;21282;-79
2021/05/04 14:07:02;;;;;;;5.30;2.95;;;;;;;21.25;24.58;97949.98;2200866;81;21441;-78
2021/05/04 14:26:49;;;;;;;19.32;3.72;;;;;;;21.07;24.26;97924.24;2204848;81;21405;-79
2021/05/04 14:29:50;;;;;;;11.30;3.55;;;;;;;21.01;23.43;97911.25;2219048;80;21114;-79
2021/05/04 14:32:51;;;;;;;6.35;3.30;;;;;;;20.85;23.76;97917.70;2204862;81;21114;-79
2021/05/04 14:35:55;;;;;;;18.73;3.45;;;;;;;20.94;25.16;97930.56;2219038;80;21156;-80
2021/05/04 14:39:03;;;;;;;7.30;3.13;;;;;;;20.96;24.30;97930.03;2205010;80;21393;-81
2021/05/04 14:45:48;;;;;;;12.00;4.05;;;;;;;20.87;24.39;97924.66;2204897;81;21262;-80
2021/05/04 14:58:37;;;;;;;6.37;3.55;;;;;;;20.76;25.08;97892.88;2204789;81;21126;-79
2021/05/04 15:01:44;;;;;;;6.45;3.47;;;;;;;20.72;25.05;97904.55;2218647;80;21110;-78
2021/05/04 15:04:47;;;;;;;4.78;3.58;;;;;;;20.50;25.88;97897.99;2204624;81;21428;-80
2021/05/04 15:07:48;;;;;;;5.27;3.67;;;;;;;20.58;25.57;97874.66;2219916;80;21106;-79
2021/05/04 15:10:49;;;;;;;7.53;3.92;;;;;;;20.73;26.27;97873.98;2204385;81;21110;-79